sensor_id;sensor_type;location;lat;lon;timestamp;temperature;humidity
7648;DHT22;3866;48.020;11.720;2023-07-16T00:00:14;22.30;99.90
7648;DHT22;3866;48.020;11.720;2023-07-16T00:02:44;22.20;99.90
7648;DHT22;3866;48.020;11.720;2023-07-16T00:05:12;22.20;99.90
7648;DHT22;3866;48.020;11.720;2023-07-16T00:07:39;22.30;99.90
7648;DHT22;3866;48.020;11.720;2023-07-16T00:10:06;22.20;99.90
7648;DHT22;3866;48.020;11.720;2023-07-16T00:12:33;22.20;99.90
7648;DHT22;3866;48.020;11.720;2023-07-16T00:15:00;22.00;99.90
7648;DHT22;3866;48.020;11.720;2023-07-16T00:17:26;22.00;99.90
7648;DHT22;3866;48.020;11.720;2023-07-16T00:19:53;21.90;99.90
7648;DHT22;3866;48.020;11.720;2023-07-16T00:22:21;21.70;99.90
7648;DHT22;3866;48.020;11.720;2023-07-16T00:24:48;21.60;99.90
7648;DHT22;3866;48.020;11.720;2023-07-16T00:27:15;21.70;99.90
7648;DHT22;3866;48.020;11.720;2023-07-16T00:29:42;21.60;99.90
7648;DHT22;3866;48.020;11.720;2023-07-16T00:32:09;21.40;99.90
7648;DHT22;3866;48.020;11.720;2023-07-16T00:34:36;21.30;99.90
7648;DHT22;3866;48.020;11.720;2023-07-16T00:37:03;21.20;99.90
7648;DHT22;3866;48.020;11.720;2023-07-16T00:39:31;21.20;99.90
7648;DHT22;3866;48.020;11.720;2023-07-16T00:41:58;21.10;99.90
7648;DHT22;3866;48.020;11.720;2023-07-16T00:44:25;21.00;99.90
7648;DHT22;3866;48.020;11.720;2023-07-16T00:46:52;21.00;99.90
7648;DHT22;3866;48.020;11.720;2023-07-16T00:49:19;20.90;99.90
7648;DHT22;3866;48.020;11.720;2023-07-16T00:51:46;20.80;99.90
7648;DHT22;3866;48.020;11.720;2023-07-16T00:54:13;20.90;99.90
7648;DHT22;3866;48.020;11.720;2023-07-16T00:56:41;20.90;99.90
7648;DHT22;3866;48.020;11.720;2023-07-16T00:59:08;20.90;99.90
7648;DHT22;3866;48.020;11.720;2023-07-16T01:01:35;20.80;99.90
7648;DHT22;3866;48.020;11.720;2023-07-16T01:04:03;20.70;99.90
7648;DHT22;3866;48.020;11.720;2023-07-16T01:06:33;20.70;99.90
7648;DHT22;3866;48.020;11.720;2023-07-16T01:09:03;20.70;99.90
7648;DHT22;3866;48.020;11.720;2023-07-16T01:11:34;20.70;99.90
7648;DHT22;3866;48.020;11.720;2023-07-16T01:14:03;20.60;99.90
7648;DHT22;3866;48.020;11.720;2023-07-16T01:16:31;20.60;99.90
7648;DHT22;3866;48.020;11.720;2023-07-16T01:18:58;20.60;99.90
7648;DHT22;3866;48.020;11.720;2023-07-16T01:21:29;20.50;99.90
7648;DHT22;3866;48.020;11.720;2023-07-16T01:24:11;20.50;99.90
7648;DHT22;3866;48.020;11.720;2023-07-16T01:26:51;20.40;99.90
7648;DHT22;3866;48.020;11.720;2023-07-16T01:29:30;20.40;99.90
7648;DHT22;3866;48.020;11.720;2023-07-16T01:32:01;20.30;99.90
7648;DHT22;3866;48.020;11.720;2023-07-16T01:34:31;20.30;99.90
7648;DHT22;3866;48.020;11.720;2023-07-16T01:36:59;20.20;99.90
7648;DHT22;3866;48.020;11.720;2023-07-16T01:39:26;20.20;99.90
7648;DHT22;3866;48.020;11.720;2023-07-16T01:41:53;20.20;99.90
7648;DHT22;3866;48.020;11.720;2023-07-16T01:44:20;20.20;99.90
7648;DHT22;3866;48.020;11.720;2023-07-16T01:47:00;20.10;99.90
7648;DHT22;3866;48.020;11.720;2023-07-16T01:49:30;20.20;99.90
7648;DHT22;3866;48.020;11.720;2023-07-16T01:51:57;20.20;99.90
7648;DHT22;3866;48.020;11.720;2023-07-16T01:54:24;20.20;99.90
7648;DHT22;3866;48.020;11.720;2023-07-16T01:56:50;20.20;99.90
7648;DHT22;3866;48.020;11.720;2023-07-16T01:59:17;20.20;99.90
7648;DHT22;3866;48.020;11.720;2023-07-16T02:01:44;20.20;99.90
7648;DHT22;3866;48.020;11.720;2023-07-16T02:04:12;20.20;99.90
7648;DHT22;3866;48.020;11.720;2023-07-16T02:06:39;20.10;99.90
7648;DHT22;3866;48.020;11.720;2023-07-16T02:09:06;20.10;99.90
7648;DHT22;3866;48.020;11.720;2023-07-16T02:11:33;20.10;99.90
7648;DHT22;3866;48.020;11.720;2023-07-16T02:13:59;20.10;99.90
7648;DHT22;3866;48.020;11.720;2023-07-16T02:16:26;20.10;99.90
7648;DHT22;3866;48.020;11.720;2023-07-16T02:18:53;20.10;99.90
7648;DHT22;3866;48.020;11.720;2023-07-16T02:21:21;20.20;99.90
7648;DHT22;3866;48.020;11.720;2023-07-16T02:23:48;20.30;99.90
7648;DHT22;3866;48.020;11.720;2023-07-16T02:26:15;20.20;99.90
7648;DHT22;3866;48.020;11.720;2023-07-16T02:28:42;20.20;99.90
7648;DHT22;3866;48.020;11.720;2023-07-16T02:31:09;20.30;99.90
7648;DHT22;3866;48.020;11.720;2023-07-16T02:33:36;20.30;99.90
7648;DHT22;3866;48.020;11.720;2023-07-16T02:36:03;20.20;99.90
7648;DHT22;3866;48.020;11.720;2023-07-16T02:38:32;20.20;99.90
7648;DHT22;3866;48.020;11.720;2023-07-16T02:40:59;20.30;99.90
7648;DHT22;3866;48.020;11.720;2023-07-16T02:43:26;20.30;99.90
7648;DHT22;3866;48.020;11.720;2023-07-16T02:45:52;20.20;99.90
7648;DHT22;3866;48.020;11.720;2023-07-16T02:48:19;20.30;99.90
7648;DHT22;3866;48.020;11.720;2023-07-16T02:50:46;20.30;99.90
7648;DHT22;3866;48.020;11.720;2023-07-16T02:53:13;20.30;99.90
7648;DHT22;3866;48.020;11.720;2023-07-16T02:55:41;20.30;99.90
7648;DHT22;3866;48.020;11.720;2023-07-16T02:58:08;20.30;99.90
7648;DHT22;3866;48.020;11.720;2023-07-16T03:00:35;20.20;99.90
7648;DHT22;3866;48.020;11.720;2023-07-16T03:03:02;20.30;99.90
7648;DHT22;3866;48.020;11.720;2023-07-16T03:05:28;20.40;99.90
7648;DHT22;3866;48.020;11.720;2023-07-16T03:07:55;20.40;99.90
7648;DHT22;3866;48.020;11.720;2023-07-16T03:10:22;20.40;99.90
7648;DHT22;3866;48.020;11.720;2023-07-16T03:12:53;20.40;99.90
7648;DHT22;3866;48.020;11.720;2023-07-16T03:15:20;20.50;99.90
7648;DHT22;3866;48.020;11.720;2023-07-16T03:17:47;20.50;99.90
7648;DHT22;3866;48.020;11.720;2023-07-16T03:20:14;20.50;99.90
7648;DHT22;3866;48.020;11.720;2023-07-16T03:22:41;20.50;99.90
7648;DHT22;3866;48.020;11.720;2023-07-16T03:25:08;20.50;99.90
7648;DHT22;3866;48.020;11.720;2023-07-16T03:27:35;20.60;99.90
7648;DHT22;3866;48.020;11.720;2023-07-16T03:30:04;20.70;99.90
7648;DHT22;3866;48.020;11.720;2023-07-16T03:32:31;20.70;99.90
7648;DHT22;3866;48.020;11.720;2023-07-16T03:34:57;20.60;99.90
7648;DHT22;3866;48.020;11.720;2023-07-16T03:37:24;20.60;99.90
7648;DHT22;3866;48.020;11.720;2023-07-16T03:39:51;20.50;99.90
7648;DHT22;3866;48.020;11.720;2023-07-16T03:42:18;20.50;99.90
7648;DHT22;3866;48.020;11.720;2023-07-16T03:44:45;20.60;99.90
7648;DHT22;3866;48.020;11.720;2023-07-16T03:47:13;20.60;99.90
7648;DHT22;3866;48.020;11.720;2023-07-16T03:49:40;20.70;99.90
7648;DHT22;3866;48.020;11.720;2023-07-16T03:52:07;20.70;99.90
7648;DHT22;3866;48.020;11.720;2023-07-16T03:54:34;20.80;99.90
7648;DHT22;3866;48.020;11.720;2023-07-16T03:57:00;20.80;99.90
7648;DHT22;3866;48.020;11.720;2023-07-16T03:59:28;20.80;99.90
7648;DHT22;3866;48.020;11.720;2023-07-16T04:01:55;20.80;99.90
7648;DHT22;3866;48.020;11.720;2023-07-16T04:04:23;20.80;99.90
7648;DHT22;3866;48.020;11.720;2023-07-16T04:06:50;20.90;99.90
7648;DHT22;3866;48.020;11.720;2023-07-16T04:09:17;20.70;99.90
7648;DHT22;3866;48.020;11.720;2023-07-16T04:11:43;20.40;99.90
7648;DHT22;3866;48.020;11.720;2023-07-16T04:14:10;20.50;99.90
7648;DHT22;3866;48.020;11.720;2023-07-16T04:16:37;20.30;99.90
7648;DHT22;3866;48.020;11.720;2023-07-16T04:19:04;20.10;99.90
7648;DHT22;3866;48.020;11.720;2023-07-16T04:21:32;19.80;99.90
7648;DHT22;3866;48.020;11.720;2023-07-16T04:23:59;19.70;99.90
7648;DHT22;3866;48.020;11.720;2023-07-16T04:26:26;19.70;99.90
7648;DHT22;3866;48.020;11.720;2023-07-16T04:28:53;19.70;99.90
7648;DHT22;3866;48.020;11.720;2023-07-16T04:31:19;19.60;99.90
7648;DHT22;3866;48.020;11.720;2023-07-16T04:33:46;19.60;99.90
7648;DHT22;3866;48.020;11.720;2023-07-16T04:36:13;19.60;99.90
7648;DHT22;3866;48.020;11.720;2023-07-16T04:38:41;19.50;99.90
7648;DHT22;3866;48.020;11.720;2023-07-16T04:41:08;19.30;99.90
7648;DHT22;3866;48.020;11.720;2023-07-16T04:43:35;19.20;99.90
7648;DHT22;3866;48.020;11.720;2023-07-16T04:46:02;19.10;99.90
7648;DHT22;3866;48.020;11.720;2023-07-16T04:48:29;19.20;99.90
7648;DHT22;3866;48.020;11.720;2023-07-16T04:50:56;19.00;99.90
7648;DHT22;3866;48.020;11.720;2023-07-16T04:53:23;19.00;99.90
7648;DHT22;3866;48.020;11.720;2023-07-16T04:55:51;18.80;99.90
7648;DHT22;3866;48.020;11.720;2023-07-16T04:58:18;18.60;99.90
7648;DHT22;3866;48.020;11.720;2023-07-16T05:00:45;18.70;99.90
7648;DHT22;3866;48.020;11.720;2023-07-16T05:03:12;18.70;99.90
7648;DHT22;3866;48.020;11.720;2023-07-16T05:05:39;18.80;99.90
7648;DHT22;3866;48.020;11.720;2023-07-16T05:08:06;18.50;99.90
7648;DHT22;3866;48.020;11.720;2023-07-16T05:10:33;18.50;99.90
7648;DHT22;3866;48.020;11.720;2023-07-16T05:13:01;18.50;99.90
7648;DHT22;3866;48.020;11.720;2023-07-16T05:15:29;18.50;99.90
7648;DHT22;3866;48.020;11.720;2023-07-16T05:17:56;18.40;99.90
7648;DHT22;3866;48.020;11.720;2023-07-16T05:20:24;18.50;99.90
7648;DHT22;3866;48.020;11.720;2023-07-16T05:22:51;18.60;99.90
7648;DHT22;3866;48.020;11.720;2023-07-16T05:25:18;18.50;99.90
7648;DHT22;3866;48.020;11.720;2023-07-16T05:27:44;18.50;99.90
7648;DHT22;3866;48.020;11.720;2023-07-16T05:30:13;18.60;99.90
7648;DHT22;3866;48.020;11.720;2023-07-16T05:32:40;18.50;99.90
7648;DHT22;3866;48.020;11.720;2023-07-16T05:35:07;18.40;99.90
7648;DHT22;3866;48.020;11.720;2023-07-16T05:37:34;18.40;99.90
7648;DHT22;3866;48.020;11.720;2023-07-16T05:40:02;18.40;99.90
7648;DHT22;3866;48.020;11.720;2023-07-16T05:42:29;18.50;99.90
7648;DHT22;3866;48.020;11.720;2023-07-16T05:44:56;18.60;99.90
7648;DHT22;3866;48.020;11.720;2023-07-16T05:47:24;18.70;99.90
7648;DHT22;3866;48.020;11.720;2023-07-16T05:49:51;18.70;99.90
7648;DHT22;3866;48.020;11.720;2023-07-16T05:52:18;18.80;99.90
7648;DHT22;3866;48.020;11.720;2023-07-16T05:54:45;18.80;99.90
7648;DHT22;3866;48.020;11.720;2023-07-16T05:57:12;18.80;99.90
7648;DHT22;3866;48.020;11.720;2023-07-16T05:59:38;18.80;99.90
7648;DHT22;3866;48.020;11.720;2023-07-16T06:02:06;18.80;99.90
7648;DHT22;3866;48.020;11.720;2023-07-16T06:04:34;18.80;99.90
7648;DHT22;3866;48.020;11.720;2023-07-16T06:07:02;18.80;99.90
7648;DHT22;3866;48.020;11.720;2023-07-16T06:09:29;18.90;99.90
7648;DHT22;3866;48.020;11.720;2023-07-16T06:11:56;18.80;99.90
7648;DHT22;3866;48.020;11.720;2023-07-16T06:14:23;18.90;99.90
7648;DHT22;3866;48.020;11.720;2023-07-16T06:16:50;18.80;99.90
7648;DHT22;3866;48.020;11.720;2023-07-16T06:19:18;18.70;99.90
7648;DHT22;3866;48.020;11.720;2023-07-16T06:21:46;18.70;99.90
7648;DHT22;3866;48.020;11.720;2023-07-16T06:24:13;18.80;99.90
7648;DHT22;3866;48.020;11.720;2023-07-16T06:26:40;18.80;99.90
7648;DHT22;3866;48.020;11.720;2023-07-16T06:29:06;18.80;99.90
7648;DHT22;3866;48.020;11.720;2023-07-16T06:31:33;19.00;99.90
7648;DHT22;3866;48.020;11.720;2023-07-16T06:34:00;19.00;99.90
7648;DHT22;3866;48.020;11.720;2023-07-16T06:36:27;19.10;99.90
7648;DHT22;3866;48.020;11.720;2023-07-16T06:38:55;19.10;99.90
7648;DHT22;3866;48.020;11.720;2023-07-16T06:41:22;19.00;99.90
7648;DHT22;3866;48.020;11.720;2023-07-16T06:43:49;19.00;99.90
7648;DHT22;3866;48.020;11.720;2023-07-16T06:46:16;19.10;99.90
7648;DHT22;3866;48.020;11.720;2023-07-16T06:48:43;19.40;99.90
7648;DHT22;3866;48.020;11.720;2023-07-16T06:51:09;19.50;99.90
7648;DHT22;3866;48.020;11.720;2023-07-16T06:53:36;19.60;99.90
7648;DHT22;3866;48.020;11.720;2023-07-16T06:56:05;19.50;99.90
7648;DHT22;3866;48.020;11.720;2023-07-16T06:58:32;19.60;99.90
7648;DHT22;3866;48.020;11.720;2023-07-16T07:00:59;19.40;99.90
7648;DHT22;3866;48.020;11.720;2023-07-16T07:03:26;19.30;99.90
7648;DHT22;3866;48.020;11.720;2023-07-16T07:05:53;19.40;99.90
7648;DHT22;3866;48.020;11.720;2023-07-16T07:08:20;19.50;99.90
7648;DHT22;3866;48.020;11.720;2023-07-16T07:10:48;19.80;99.90
7648;DHT22;3866;48.020;11.720;2023-07-16T07:13:16;20.10;99.90
7648;DHT22;3866;48.020;11.720;2023-07-16T07:15:43;20.40;99.90
7648;DHT22;3866;48.020;11.720;2023-07-16T07:18:10;20.20;99.90
7648;DHT22;3866;48.020;11.720;2023-07-16T07:20:37;20.00;99.90
7648;DHT22;3866;48.020;11.720;2023-07-16T07:23:04;20.00;99.90
7648;DHT22;3866;48.020;11.720;2023-07-16T07:25:30;19.80;99.90
7648;DHT22;3866;48.020;11.720;2023-07-16T07:27:57;19.80;99.90
7648;DHT22;3866;48.020;11.720;2023-07-16T07:30:26;20.00;99.90
7648;DHT22;3866;48.020;11.720;2023-07-16T07:32:52;20.10;99.90
7648;DHT22;3866;48.020;11.720;2023-07-16T07:35:19;20.20;99.90
7648;DHT22;3866;48.020;11.720;2023-07-16T07:37:46;20.10;99.90
7648;DHT22;3866;48.020;11.720;2023-07-16T07:40:13;20.20;99.90
7648;DHT22;3866;48.020;11.720;2023-07-16T07:42:40;20.30;99.90
7648;DHT22;3866;48.020;11.720;2023-07-16T07:45:07;20.50;99.90
7648;DHT22;3866;48.020;11.720;2023-07-16T07:47:36;20.50;99.90
7648;DHT22;3866;48.020;11.720;2023-07-16T07:50:03;20.30;99.90
7648;DHT22;3866;48.020;11.720;2023-07-16T07:52:30;20.80;99.90
7648;DHT22;3866;48.020;11.720;2023-07-16T07:54:57;21.10;99.90
7648;DHT22;3866;48.020;11.720;2023-07-16T07:57:24;20.80;99.90
7648;DHT22;3866;48.020;11.720;2023-07-16T07:59:51;20.70;99.90
7648;DHT22;3866;48.020;11.720;2023-07-16T08:02:22;20.50;99.90
7648;DHT22;3866;48.020;11.720;2023-07-16T08:04:51;20.60;99.90
7648;DHT22;3866;48.020;11.720;2023-07-16T08:07:18;20.50;99.90
7648;DHT22;3866;48.020;11.720;2023-07-16T08:09:45;20.60;99.90
7648;DHT22;3866;48.020;11.720;2023-07-16T08:12:12;20.70;99.90
7648;DHT22;3866;48.020;11.720;2023-07-16T08:14:39;20.60;99.90
7648;DHT22;3866;48.020;11.720;2023-07-16T08:17:07;20.50;99.90
7648;DHT22;3866;48.020;11.720;2023-07-16T08:19:34;20.70;99.90
7648;DHT22;3866;48.020;11.720;2023-07-16T08:22:02;20.90;99.90
7648;DHT22;3866;48.020;11.720;2023-07-16T08:24:29;21.00;99.90
7648;DHT22;3866;48.020;11.720;2023-07-16T08:26:56;21.00;99.90
7648;DHT22;3866;48.020;11.720;2023-07-16T08:29:23;21.20;99.90
7648;DHT22;3866;48.020;11.720;2023-07-16T08:31:50;21.30;99.90
7648;DHT22;3866;48.020;11.720;2023-07-16T08:34:17;21.20;99.90
7648;DHT22;3866;48.020;11.720;2023-07-16T08:36:44;21.10;99.90
7648;DHT22;3866;48.020;11.720;2023-07-16T08:39:12;21.10;99.90
7648;DHT22;3866;48.020;11.720;2023-07-16T08:41:39;21.40;99.90
7648;DHT22;3866;48.020;11.720;2023-07-16T08:44:06;21.80;99.90
7648;DHT22;3866;48.020;11.720;2023-07-16T08:46:33;22.00;99.90
7648;DHT22;3866;48.020;11.720;2023-07-16T08:49:00;22.20;99.90
7648;DHT22;3866;48.020;11.720;2023-07-16T08:51:29;21.90;99.90
7648;DHT22;3866;48.020;11.720;2023-07-16T08:53:57;22.30;99.90
7648;DHT22;3866;48.020;11.720;2023-07-16T08:56:26;22.20;99.90
7648;DHT22;3866;48.020;11.720;2023-07-16T08:58:54;22.40;99.90
7648;DHT22;3866;48.020;11.720;2023-07-16T09:01:22;23.40;99.90
7648;DHT22;3866;48.020;11.720;2023-07-16T09:03:49;23.70;99.90
7648;DHT22;3866;48.020;11.720;2023-07-16T09:06:16;24.20;99.90
7648;DHT22;3866;48.020;11.720;2023-07-16T09:08:43;23.00;99.90
7648;DHT22;3866;48.020;11.720;2023-07-16T09:11:11;22.80;99.90
7648;DHT22;3866;48.020;11.720;2023-07-16T09:13:44;22.70;99.90
7648;DHT22;3866;48.020;11.720;2023-07-16T09:16:12;23.90;99.90
7648;DHT22;3866;48.020;11.720;2023-07-16T09:18:42;24.80;99.90
7648;DHT22;3866;48.020;11.720;2023-07-16T09:21:09;24.40;99.90
7648;DHT22;3866;48.020;11.720;2023-07-16T09:23:36;24.10;99.90
7648;DHT22;3866;48.020;11.720;2023-07-16T09:26:03;23.90;99.90
7648;DHT22;3866;48.020;11.720;2023-07-16T09:28:30;23.80;99.90
7648;DHT22;3866;48.020;11.720;2023-07-16T09:31:05;24.90;99.90
7648;DHT22;3866;48.020;11.720;2023-07-16T09:33:33;24.60;99.90
7648;DHT22;3866;48.020;11.720;2023-07-16T09:36:00;25.10;99.90
7648;DHT22;3866;48.020;11.720;2023-07-16T09:38:28;24.90;99.90
7648;DHT22;3866;48.020;11.720;2023-07-16T09:40:56;24.90;99.90
7648;DHT22;3866;48.020;11.720;2023-07-16T09:43:23;25.30;99.90
7648;DHT22;3866;48.020;11.720;2023-07-16T09:45:50;24.70;99.90
7648;DHT22;3866;48.020;11.720;2023-07-16T09:48:18;24.40;99.90
7648;DHT22;3866;48.020;11.720;2023-07-16T09:50:50;24.20;99.90
7648;DHT22;3866;48.020;11.720;2023-07-16T09:53:19;24.30;99.90
7648;DHT22;3866;48.020;11.720;2023-07-16T09:55:47;24.20;99.90
7648;DHT22;3866;48.020;11.720;2023-07-16T09:58:14;24.40;99.90
7648;DHT22;3866;48.020;11.720;2023-07-16T10:00:45;24.50;99.90
7648;DHT22;3866;48.020;11.720;2023-07-16T10:03:14;24.40;99.90
7648;DHT22;3866;48.020;11.720;2023-07-16T10:05:43;24.60;99.90
7648;DHT22;3866;48.020;11.720;2023-07-16T10:08:17;24.30;99.90
7648;DHT22;3866;48.020;11.720;2023-07-16T10:10:46;24.10;99.90
7648;DHT22;3866;48.020;11.720;2023-07-16T10:13:14;24.60;99.90
7648;DHT22;3866;48.020;11.720;2023-07-16T10:15:51;24.70;99.90
7648;DHT22;3866;48.020;11.720;2023-07-16T10:18:23;24.60;99.90
7648;DHT22;3866;48.020;11.720;2023-07-16T10:20:52;24.60;99.90
7648;DHT22;3866;48.020;11.720;2023-07-16T10:23:19;24.90;99.90
7648;DHT22;3866;48.020;11.720;2023-07-16T10:25:58;24.70;99.90
7648;DHT22;3866;48.020;11.720;2023-07-16T10:28:25;24.80;99.90
7648;DHT22;3866;48.020;11.720;2023-07-16T10:30:52;25.10;99.90
7648;DHT22;3866;48.020;11.720;2023-07-16T10:33:19;25.20;99.90
7648;DHT22;3866;48.020;11.720;2023-07-16T10:35:46;25.20;99.90
7648;DHT22;3866;48.020;11.720;2023-07-16T10:38:15;24.80;99.90
7648;DHT22;3866;48.020;11.720;2023-07-16T10:40:42;25.20;99.90
7648;DHT22;3866;48.020;11.720;2023-07-16T10:43:09;25.40;99.90
7648;DHT22;3866;48.020;11.720;2023-07-16T10:45:36;25.40;99.90
7648;DHT22;3866;48.020;11.720;2023-07-16T10:48:04;25.10;99.90
7648;DHT22;3866;48.020;11.720;2023-07-16T10:50:33;25.30;99.90
7648;DHT22;3866;48.020;11.720;2023-07-16T10:53:00;25.50;99.90
7648;DHT22;3866;48.020;11.720;2023-07-16T10:55:29;25.60;99.90
7648;DHT22;3866;48.020;11.720;2023-07-16T10:57:58;25.40;99.90
7648;DHT22;3866;48.020;11.720;2023-07-16T11:00:25;25.30;99.90
7648;DHT22;3866;48.020;11.720;2023-07-16T11:02:52;25.20;99.90
7648;DHT22;3866;48.020;11.720;2023-07-16T11:05:19;25.20;99.90
7648;DHT22;3866;48.020;11.720;2023-07-16T11:07:47;25.40;99.90
7648;DHT22;3866;48.020;11.720;2023-07-16T11:10:15;25.40;99.90
7648;DHT22;3866;48.020;11.720;2023-07-16T11:12:44;25.50;99.90
7648;DHT22;3866;48.020;11.720;2023-07-16T11:15:11;25.50;99.90
7648;DHT22;3866;48.020;11.720;2023-07-16T11:17:38;25.50;99.90
7648;DHT22;3866;48.020;11.720;2023-07-16T11:20:08;25.70;99.90
7648;DHT22;3866;48.020;11.720;2023-07-16T11:22:37;25.80;99.90
7648;DHT22;3866;48.020;11.720;2023-07-16T11:25:11;25.70;99.90
7648;DHT22;3866;48.020;11.720;2023-07-16T11:27:41;25.70;99.90
7648;DHT22;3866;48.020;11.720;2023-07-16T11:30:10;26.10;99.90
7648;DHT22;3866;48.020;11.720;2023-07-16T11:32:38;25.90;99.90
7648;DHT22;3866;48.020;11.720;2023-07-16T11:35:11;26.10;99.90
7648;DHT22;3866;48.020;11.720;2023-07-16T11:37:42;26.10;99.90
7648;DHT22;3866;48.020;11.720;2023-07-16T11:40:10;26.20;99.90
7648;DHT22;3866;48.020;11.720;2023-07-16T11:42:38;26.70;99.90
7648;DHT22;3866;48.020;11.720;2023-07-16T11:45:15;26.50;99.90
7648;DHT22;3866;48.020;11.720;2023-07-16T11:47:41;26.30;99.90
7648;DHT22;3866;48.020;11.720;2023-07-16T11:50:09;26.40;99.90
7648;DHT22;3866;48.020;11.720;2023-07-16T11:52:36;26.70;99.90
7648;DHT22;3866;48.020;11.720;2023-07-16T11:55:03;26.40;99.90
7648;DHT22;3866;48.020;11.720;2023-07-16T11:57:30;25.50;99.90
7648;DHT22;3866;48.020;11.720;2023-07-16T11:59:57;26.00;99.90
7648;DHT22;3866;48.020;11.720;2023-07-16T12:02:26;26.20;99.90
7648;DHT22;3866;48.020;11.720;2023-07-16T12:04:55;26.20;99.90
7648;DHT22;3866;48.020;11.720;2023-07-16T12:07:30;26.10;99.90
7648;DHT22;3866;48.020;11.720;2023-07-16T12:09:58;26.10;99.90
7648;DHT22;3866;48.020;11.720;2023-07-16T12:12:24;26.10;99.90
7648;DHT22;3866;48.020;11.720;2023-07-16T12:14:51;26.10;99.90
7648;DHT22;3866;48.020;11.720;2023-07-16T12:17:18;26.40;99.90
7648;DHT22;3866;48.020;11.720;2023-07-16T12:19:46;26.50;99.90
7648;DHT22;3866;48.020;11.720;2023-07-16T12:22:14;27.10;99.90
7648;DHT22;3866;48.020;11.720;2023-07-16T12:24:42;27.00;99.90
7648;DHT22;3866;48.020;11.720;2023-07-16T12:27:09;26.50;99.90
7648;DHT22;3866;48.020;11.720;2023-07-16T12:29:36;26.60;99.90
7648;DHT22;3866;48.020;11.720;2023-07-16T12:32:04;26.50;99.90
7648;DHT22;3866;48.020;11.720;2023-07-16T12:34:30;26.50;99.90
7648;DHT22;3866;48.020;11.720;2023-07-16T12:36:59;26.20;99.90
7648;DHT22;3866;48.020;11.720;2023-07-16T12:39:25;25.90;99.90
7648;DHT22;3866;48.020;11.720;2023-07-16T12:41:52;26.30;99.90
7648;DHT22;3866;48.020;11.720;2023-07-16T12:44:19;26.70;99.90
7648;DHT22;3866;48.020;11.720;2023-07-16T12:46:46;26.60;99.90
7648;DHT22;3866;48.020;11.720;2023-07-16T12:49:13;26.50;99.90
7648;DHT22;3866;48.020;11.720;2023-07-16T12:51:40;26.20;99.90
7648;DHT22;3866;48.020;11.720;2023-07-16T12:54:08;26.20;99.90
7648;DHT22;3866;48.020;11.720;2023-07-16T12:56:35;26.10;99.90
7648;DHT22;3866;48.020;11.720;2023-07-16T12:59:01;25.80;99.90
7648;DHT22;3866;48.020;11.720;2023-07-16T13:01:29;26.30;99.90
7648;DHT22;3866;48.020;11.720;2023-07-16T13:03:57;26.80;99.90
7648;DHT22;3866;48.020;11.720;2023-07-16T13:06:24;27.50;99.90
7648;DHT22;3866;48.020;11.720;2023-07-16T13:08:50;28.40;99.90
7648;DHT22;3866;48.020;11.720;2023-07-16T13:11:19;28.40;99.90
7648;DHT22;3866;48.020;11.720;2023-07-16T13:13:46;28.10;99.90
7648;DHT22;3866;48.020;11.720;2023-07-16T13:16:12;27.80;99.90
7648;DHT22;3866;48.020;11.720;2023-07-16T13:18:39;27.70;99.90
7648;DHT22;3866;48.020;11.720;2023-07-16T13:21:06;27.60;99.90
7648;DHT22;3866;48.020;11.720;2023-07-16T13:23:33;27.50;99.90
7648;DHT22;3866;48.020;11.720;2023-07-16T13:26:01;27.60;99.90
7648;DHT22;3866;48.020;11.720;2023-07-16T13:28:29;27.30;99.90
7648;DHT22;3866;48.020;11.720;2023-07-16T13:30:56;27.40;99.90
7648;DHT22;3866;48.020;11.720;2023-07-16T13:33:23;27.20;99.90
7648;DHT22;3866;48.020;11.720;2023-07-16T13:35:50;27.10;99.90
7648;DHT22;3866;48.020;11.720;2023-07-16T13:38:17;26.90;99.90
7648;DHT22;3866;48.020;11.720;2023-07-16T13:40:43;27.10;99.90
7648;DHT22;3866;48.020;11.720;2023-07-16T13:43:10;26.90;99.90
7648;DHT22;3866;48.020;11.720;2023-07-16T13:45:39;27.00;99.90
7648;DHT22;3866;48.020;11.720;2023-07-16T13:48:06;27.10;99.90
7648;DHT22;3866;48.020;11.720;2023-07-16T13:50:33;26.90;99.90
7648;DHT22;3866;48.020;11.720;2023-07-16T13:53:00;26.60;99.90
7648;DHT22;3866;48.020;11.720;2023-07-16T13:55:27;26.40;99.90
7648;DHT22;3866;48.020;11.720;2023-07-16T13:57:54;26.30;99.90
7648;DHT22;3866;48.020;11.720;2023-07-16T14:00:21;26.50;99.90
7648;DHT22;3866;48.020;11.720;2023-07-16T14:02:49;26.20;99.90
7648;DHT22;3866;48.020;11.720;2023-07-16T14:05:16;26.10;99.90
7648;DHT22;3866;48.020;11.720;2023-07-16T14:07:43;26.10;99.90
7648;DHT22;3866;48.020;11.720;2023-07-16T14:10:10;26.00;99.90
7648;DHT22;3866;48.020;11.720;2023-07-16T14:12:37;26.00;99.90
7648;DHT22;3866;48.020;11.720;2023-07-16T14:15:04;26.00;99.90
7648;DHT22;3866;48.020;11.720;2023-07-16T14:17:31;26.00;99.90
7648;DHT22;3866;48.020;11.720;2023-07-16T14:20:00;26.00;99.90
7648;DHT22;3866;48.020;11.720;2023-07-16T14:22:26;25.90;99.90
7648;DHT22;3866;48.020;11.720;2023-07-16T14:24:53;25.90;99.90
7648;DHT22;3866;48.020;11.720;2023-07-16T14:27:20;25.90;99.90
7648;DHT22;3866;48.020;11.720;2023-07-16T14:29:48;25.90;99.90
7648;DHT22;3866;48.020;11.720;2023-07-16T14:32:15;25.90;99.90
7648;DHT22;3866;48.020;11.720;2023-07-16T14:34:42;25.90;99.90
7648;DHT22;3866;48.020;11.720;2023-07-16T14:37:10;25.90;99.90
7648;DHT22;3866;48.020;11.720;2023-07-16T14:39:38;25.80;99.90
7648;DHT22;3866;48.020;11.720;2023-07-16T14:42:05;25.80;99.90
7648;DHT22;3866;48.020;11.720;2023-07-16T14:44:32;25.80;99.90
7648;DHT22;3866;48.020;11.720;2023-07-16T14:46:59;25.70;99.90
7648;DHT22;3866;48.020;11.720;2023-07-16T14:49:26;25.70;99.90
7648;DHT22;3866;48.020;11.720;2023-07-16T14:51:53;25.70;99.90
7648;DHT22;3866;48.020;11.720;2023-07-16T14:54:21;25.80;99.90
7648;DHT22;3866;48.020;11.720;2023-07-16T14:56:48;25.70;99.90
7648;DHT22;3866;48.020;11.720;2023-07-16T14:59:15;25.50;99.90
7648;DHT22;3866;48.020;11.720;2023-07-16T15:01:43;25.50;99.90
7648;DHT22;3866;48.020;11.720;2023-07-16T15:04:10;25.50;99.90
7648;DHT22;3866;48.020;11.720;2023-07-16T15:06:37;25.60;99.90
7648;DHT22;3866;48.020;11.720;2023-07-16T15:09:04;25.60;99.90
7648;DHT22;3866;48.020;11.720;2023-07-16T15:11:32;25.50;99.90
7648;DHT22;3866;48.020;11.720;2023-07-16T15:13:59;25.50;99.90
7648;DHT22;3866;48.020;11.720;2023-07-16T15:16:26;25.60;99.90
7648;DHT22;3866;48.020;11.720;2023-07-16T15:18:53;25.60;99.90
7648;DHT22;3866;48.020;11.720;2023-07-16T15:21:20;25.60;99.90
7648;DHT22;3866;48.020;11.720;2023-07-16T15:23:47;25.50;99.90
7648;DHT22;3866;48.020;11.720;2023-07-16T15:26:14;25.50;99.90
7648;DHT22;3866;48.020;11.720;2023-07-16T15:28:42;25.50;99.90
7648;DHT22;3866;48.020;11.720;2023-07-16T15:31:11;25.40;99.90
7648;DHT22;3866;48.020;11.720;2023-07-16T15:33:38;25.20;99.90
7648;DHT22;3866;48.020;11.720;2023-07-16T15:36:05;25.30;99.90
7648;DHT22;3866;48.020;11.720;2023-07-16T15:38:32;25.40;99.90
7648;DHT22;3866;48.020;11.720;2023-07-16T15:40:59;25.50;99.90
7648;DHT22;3866;48.020;11.720;2023-07-16T15:43:26;25.40;99.90
7648;DHT22;3866;48.020;11.720;2023-07-16T15:45:56;25.40;99.90